sensor_id;sensor_type;location;lat;lon;timestamp;temperature;humidity
30186;DHT22;31152;49.190;8.122;2023-07-13T00:02:01;18.90;97.00
30186;DHT22;31152;49.190;8.122;2023-07-13T00:04:30;18.90;97.00
30186;DHT22;31152;49.190;8.122;2023-07-13T00:06:59;18.90;96.90
30186;DHT22;31152;49.190;8.122;2023-07-13T00:09:26;18.90;97.00
30186;DHT22;31152;49.190;8.122;2023-07-13T00:11:56;18.90;96.90
30186;DHT22;31152;49.190;8.122;2023-07-13T00:14:24;18.80;97.00
30186;DHT22;31152;49.190;8.122;2023-07-13T00:16:51;18.80;97.00
30186;DHT22;31152;49.190;8.122;2023-07-13T00:19:18;18.80;97.00
30186;DHT22;31152;49.190;8.122;2023-07-13T00:21:46;18.80;97.10
30186;DHT22;31152;49.190;8.122;2023-07-13T00:24:15;18.80;97.10
30186;DHT22;31152;49.190;8.122;2023-07-13T00:26:43;18.80;97.20
30186;DHT22;31152;49.190;8.122;2023-07-13T00:29:12;18.80;97.40
30186;DHT22;31152;49.190;8.122;2023-07-13T00:31:42;18.80;97.80
30186;DHT22;31152;49.190;8.122;2023-07-13T00:34:10;18.60;98.20
30186;DHT22;31152;49.190;8.122;2023-07-13T00:36:39;18.60;98.20
30186;DHT22;31152;49.190;8.122;2023-07-13T00:39:06;18.50;98.40
30186;DHT22;31152;49.190;8.122;2023-07-13T00:41:33;18.50;98.80
30186;DHT22;31152;49.190;8.122;2023-07-13T00:44:03;18.40;99.00
30186;DHT22;31152;49.190;8.122;2023-07-13T00:46:32;18.20;99.40
30186;DHT22;31152;49.190;8.122;2023-07-13T00:49:02;18.10;99.50
30186;DHT22;31152;49.190;8.122;2023-07-13T00:51:38;18.10;99.60
30186;DHT22;31152;49.190;8.122;2023-07-13T00:54:21;18.10;99.90
30186;DHT22;31152;49.190;8.122;2023-07-13T00:56:51;18.00;99.90
30186;DHT22;31152;49.190;8.122;2023-07-13T00:59:19;18.00;99.90
30186;DHT22;31152;49.190;8.122;2023-07-13T01:01:48;17.90;99.90
30186;DHT22;31152;49.190;8.122;2023-07-13T01:04:16;17.80;99.90
30186;DHT22;31152;49.190;8.122;2023-07-13T01:06:43;17.70;99.90
30186;DHT22;31152;49.190;8.122;2023-07-13T01:09:14;17.50;99.90
30186;DHT22;31152;49.190;8.122;2023-07-13T01:11:42;17.40;99.90
30186;DHT22;31152;49.190;8.122;2023-07-13T01:14:14;17.30;99.90
30186;DHT22;31152;49.190;8.122;2023-07-13T01:16:42;17.30;99.90
30186;DHT22;31152;49.190;8.122;2023-07-13T01:21:56;17.20;99.90
30186;DHT22;31152;49.190;8.122;2023-07-13T01:24:25;17.10;99.90
30186;DHT22;31152;49.190;8.122;2023-07-13T01:26:52;17.10;99.90
30186;DHT22;31152;49.190;8.122;2023-07-13T01:29:19;17.20;99.90
30186;DHT22;31152;49.190;8.122;2023-07-13T01:31:45;17.10;99.90
30186;DHT22;31152;49.190;8.122;2023-07-13T01:34:12;17.10;99.90
30186;DHT22;31152;49.190;8.122;2023-07-13T01:36:41;17.10;99.90
30186;DHT22;31152;49.190;8.122;2023-07-13T01:39:11;17.10;99.90
30186;DHT22;31152;49.190;8.122;2023-07-13T01:41:37;17.00;99.90
30186;DHT22;31152;49.190;8.122;2023-07-13T01:44:04;17.00;99.90
30186;DHT22;31152;49.190;8.122;2023-07-13T01:46:31;17.00;99.90
30186;DHT22;31152;49.190;8.122;2023-07-13T01:49:00;17.00;99.90
30186;DHT22;31152;49.190;8.122;2023-07-13T01:51:27;16.90;99.90
30186;DHT22;31152;49.190;8.122;2023-07-13T01:53:53;16.90;99.90
30186;DHT22;31152;49.190;8.122;2023-07-13T01:56:25;16.90;99.90
30186;DHT22;31152;49.190;8.122;2023-07-13T01:58:54;16.90;99.90
30186;DHT22;31152;49.190;8.122;2023-07-13T02:01:21;16.90;99.90
30186;DHT22;31152;49.190;8.122;2023-07-13T02:03:47;16.80;99.90
30186;DHT22;31152;49.190;8.122;2023-07-13T02:06:17;16.80;99.90
30186;DHT22;31152;49.190;8.122;2023-07-13T02:08:43;16.80;99.90
30186;DHT22;31152;49.190;8.122;2023-07-13T02:11:11;16.80;99.90
30186;DHT22;31152;49.190;8.122;2023-07-13T02:13:40;16.70;99.90
30186;DHT22;31152;49.190;8.122;2023-07-13T02:16:06;16.60;99.90
30186;DHT22;31152;49.190;8.122;2023-07-13T02:18:33;16.50;99.90
30186;DHT22;31152;49.190;8.122;2023-07-13T02:21:00;16.40;99.90
30186;DHT22;31152;49.190;8.122;2023-07-13T02:23:31;16.20;99.90
30186;DHT22;31152;49.190;8.122;2023-07-13T02:25:59;16.20;99.90
30186;DHT22;31152;49.190;8.122;2023-07-13T02:28:26;16.10;99.90
30186;DHT22;31152;49.190;8.122;2023-07-13T02:30:53;16.10;99.90
30186;DHT22;31152;49.190;8.122;2023-07-13T02:33:20;16.00;99.90
30186;DHT22;31152;49.190;8.122;2023-07-13T02:35:47;16.00;99.90
30186;DHT22;31152;49.190;8.122;2023-07-13T02:38:13;16.00;99.90
30186;DHT22;31152;49.190;8.122;2023-07-13T02:40:40;16.00;99.90
30186;DHT22;31152;49.190;8.122;2023-07-13T02:43:09;15.90;99.90
30186;DHT22;31152;49.190;8.122;2023-07-13T02:45:36;15.90;99.90
30186;DHT22;31152;49.190;8.122;2023-07-13T02:48:03;15.90;99.90
30186;DHT22;31152;49.190;8.122;2023-07-13T02:50:30;15.90;99.90
30186;DHT22;31152;49.190;8.122;2023-07-13T02:52:59;15.90;99.90
30186;DHT22;31152;49.190;8.122;2023-07-13T02:55:25;15.80;99.90
30186;DHT22;31152;49.190;8.122;2023-07-13T02:57:52;15.80;99.90
30186;DHT22;31152;49.190;8.122;2023-07-13T03:00:20;15.80;99.90
30186;DHT22;31152;49.190;8.122;2023-07-13T03:02:47;15.80;99.90
30186;DHT22;31152;49.190;8.122;2023-07-13T03:05:15;15.80;99.90
30186;DHT22;31152;49.190;8.122;2023-07-13T03:07:44;15.70;99.90
30186;DHT22;31152;49.190;8.122;2023-07-13T03:10:14;15.70;99.90
30186;DHT22;31152;49.190;8.122;2023-07-13T03:12:42;15.70;99.90
30186;DHT22;31152;49.190;8.122;2023-07-13T03:15:09;15.60;99.90
30186;DHT22;31152;49.190;8.122;2023-07-13T03:17:36;15.60;99.90
30186;DHT22;31152;49.190;8.122;2023-07-13T03:20:03;15.60;99.90
30186;DHT22;31152;49.190;8.122;2023-07-13T03:22:30;15.50;99.90
30186;DHT22;31152;49.190;8.122;2023-07-13T03:24:58;15.50;99.90
30186;DHT22;31152;49.190;8.122;2023-07-13T03:27:25;15.50;99.90
30186;DHT22;31152;49.190;8.122;2023-07-13T03:29:51;15.40;99.90
30186;DHT22;31152;49.190;8.122;2023-07-13T03:32:23;15.40;99.90
30186;DHT22;31152;49.190;8.122;2023-07-13T03:34:49;15.40;99.90
30186;DHT22;31152;49.190;8.122;2023-07-13T03:37:16;15.40;99.90
30186;DHT22;31152;49.190;8.122;2023-07-13T03:39:46;15.30;99.90
30186;DHT22;31152;49.190;8.122;2023-07-13T03:42:12;15.30;99.90
30186;DHT22;31152;49.190;8.122;2023-07-13T03:44:40;15.20;99.90
30186;DHT22;31152;49.190;8.122;2023-07-13T03:47:12;15.20;99.90
30186;DHT22;31152;49.190;8.122;2023-07-13T03:49:39;15.20;99.90
30186;DHT22;31152;49.190;8.122;2023-07-13T03:52:06;15.10;99.90
30186;DHT22;31152;49.190;8.122;2023-07-13T03:54:33;15.10;99.90
30186;DHT22;31152;49.190;8.122;2023-07-13T03:56:59;15.10;99.90
30186;DHT22;31152;49.190;8.122;2023-07-13T03:59:28;15.10;99.90
30186;DHT22;31152;49.190;8.122;2023-07-13T04:01:57;15.10;99.90
30186;DHT22;31152;49.190;8.122;2023-07-13T04:04:26;15.00;99.90
30186;DHT22;31152;49.190;8.122;2023-07-13T04:06:53;15.00;99.90
30186;DHT22;31152;49.190;8.122;2023-07-13T04:09:20;15.00;99.90
30186;DHT22;31152;49.190;8.122;2023-07-13T04:11:47;14.90;99.90
30186;DHT22;31152;49.190;8.122;2023-07-13T04:14:16;14.90;99.90
30186;DHT22;31152;49.190;8.122;2023-07-13T04:16:47;14.90;99.90
30186;DHT22;31152;49.190;8.122;2023-07-13T04:19:14;15.00;99.90
30186;DHT22;31152;49.190;8.122;2023-07-13T04:21:41;15.00;99.90
30186;DHT22;31152;49.190;8.122;2023-07-13T04:24:08;15.00;99.90
30186;DHT22;31152;49.190;8.122;2023-07-13T04:26:35;15.00;99.90
30186;DHT22;31152;49.190;8.122;2023-07-13T04:29:07;15.00;99.90
30186;DHT22;31152;49.190;8.122;2023-07-13T04:31:34;15.10;99.90
30186;DHT22;31152;49.190;8.122;2023-07-13T04:34:01;15.10;99.90
30186;DHT22;31152;49.190;8.122;2023-07-13T04:36:30;15.10;99.90
30186;DHT22;31152;49.190;8.122;2023-07-13T04:38:56;15.10;99.90
30186;DHT22;31152;49.190;8.122;2023-07-13T04:41:23;15.20;99.90
30186;DHT22;31152;49.190;8.122;2023-07-13T04:43:50;15.20;99.90
30186;DHT22;31152;49.190;8.122;2023-07-13T04:46:17;15.20;99.90
30186;DHT22;31152;49.190;8.122;2023-07-13T04:48:45;15.30;99.90
30186;DHT22;31152;49.190;8.122;2023-07-13T04:51:12;15.20;99.90
30186;DHT22;31152;49.190;8.122;2023-07-13T04:53:41;15.20;99.90
30186;DHT22;31152;49.190;8.122;2023-07-13T04:56:08;15.20;99.90
30186;DHT22;31152;49.190;8.122;2023-07-13T04:58:35;15.30;99.90
30186;DHT22;31152;49.190;8.122;2023-07-13T05:01:05;15.30;99.90
30186;DHT22;31152;49.190;8.122;2023-07-13T05:03:35;15.40;99.90
30186;DHT22;31152;49.190;8.122;2023-07-13T05:06:04;15.40;99.90
30186;DHT22;31152;49.190;8.122;2023-07-13T05:08:31;15.50;99.90
30186;DHT22;31152;49.190;8.122;2023-07-13T05:11:03;15.60;99.90
30186;DHT22;31152;49.190;8.122;2023-07-13T05:13:30;15.70;99.90
30186;DHT22;31152;49.190;8.122;2023-07-13T05:16:02;15.90;99.90
30186;DHT22;31152;49.190;8.122;2023-07-13T05:18:30;16.00;99.90
30186;DHT22;31152;49.190;8.122;2023-07-13T05:21:09;16.10;99.90
30186;DHT22;31152;49.190;8.122;2023-07-13T05:23:37;16.20;99.90
30186;DHT22;31152;49.190;8.122;2023-07-13T05:26:07;16.30;99.90
30186;DHT22;31152;49.190;8.122;2023-07-13T05:28:36;16.30;99.90
30186;DHT22;31152;49.190;8.122;2023-07-13T05:31:04;16.40;99.90
30186;DHT22;31152;49.190;8.122;2023-07-13T05:33:31;16.50;99.90
30186;DHT22;31152;49.190;8.122;2023-07-13T05:35:57;16.60;99.90
30186;DHT22;31152;49.190;8.122;2023-07-13T05:38:24;16.50;99.90
30186;DHT22;31152;49.190;8.122;2023-07-13T05:40:55;16.60;99.90
30186;DHT22;31152;49.190;8.122;2023-07-13T05:43:22;16.60;99.90
30186;DHT22;31152;49.190;8.122;2023-07-13T05:45:50;16.60;99.90
30186;DHT22;31152;49.190;8.122;2023-07-13T05:48:17;16.60;99.90
30186;DHT22;31152;49.190;8.122;2023-07-13T05:50:44;16.60;99.90
30186;DHT22;31152;49.190;8.122;2023-07-13T05:53:11;16.70;99.90
30186;DHT22;31152;49.190;8.122;2023-07-13T05:55:43;16.60;99.90
30186;DHT22;31152;49.190;8.122;2023-07-13T05:58:11;16.70;99.90
30186;DHT22;31152;49.190;8.122;2023-07-13T06:00:38;16.70;99.90
30186;DHT22;31152;49.190;8.122;2023-07-13T06:03:06;16.70;99.90
30186;DHT22;31152;49.190;8.122;2023-07-13T06:05:35;16.80;99.90
30186;DHT22;31152;49.190;8.122;2023-07-13T06:08:02;16.90;99.90
30186;DHT22;31152;49.190;8.122;2023-07-13T06:10:32;17.00;99.90
30186;DHT22;31152;49.190;8.122;2023-07-13T06:12:58;17.00;99.90
30186;DHT22;31152;49.190;8.122;2023-07-13T06:15:25;17.10;99.90
30186;DHT22;31152;49.190;8.122;2023-07-13T06:17:52;17.20;99.90
30186;DHT22;31152;49.190;8.122;2023-07-13T06:20:19;17.30;99.90
30186;DHT22;31152;49.190;8.122;2023-07-13T06:22:48;17.40;99.90
30186;DHT22;31152;49.190;8.122;2023-07-13T06:25:15;17.50;99.90
30186;DHT22;31152;49.190;8.122;2023-07-13T06:27:41;17.60;99.90
30186;DHT22;31152;49.190;8.122;2023-07-13T06:30:09;17.70;99.90
30186;DHT22;31152;49.190;8.122;2023-07-13T06:32:36;17.80;99.90
30186;DHT22;31152;49.190;8.122;2023-07-13T06:35:06;17.90;99.90
30186;DHT22;31152;49.190;8.122;2023-07-13T06:37:33;18.10;99.90
30186;DHT22;31152;49.190;8.122;2023-07-13T06:40:03;18.20;99.90
30186;DHT22;31152;49.190;8.122;2023-07-13T06:42:30;18.30;99.90
30186;DHT22;31152;49.190;8.122;2023-07-13T06:44:57;18.40;99.90
30186;DHT22;31152;49.190;8.122;2023-07-13T06:47:23;18.50;99.90
30186;DHT22;31152;49.190;8.122;2023-07-13T06:49:50;18.70;99.90
30186;DHT22;31152;49.190;8.122;2023-07-13T06:52:17;18.80;99.90
30186;DHT22;31152;49.190;8.122;2023-07-13T06:54:44;18.90;99.90
30186;DHT22;31152;49.190;8.122;2023-07-13T06:57:13;18.90;99.90
30186;DHT22;31152;49.190;8.122;2023-07-13T06:59:40;19.00;99.90
30186;DHT22;31152;49.190;8.122;2023-07-13T07:02:09;19.20;99.90
30186;DHT22;31152;49.190;8.122;2023-07-13T07:04:39;19.40;99.90
30186;DHT22;31152;49.190;8.122;2023-07-13T07:07:08;19.50;99.90
30186;DHT22;31152;49.190;8.122;2023-07-13T07:09:35;19.70;99.90
30186;DHT22;31152;49.190;8.122;2023-07-13T07:12:02;19.80;99.90
30186;DHT22;31152;49.190;8.122;2023-07-13T07:14:33;19.90;99.90
30186;DHT22;31152;49.190;8.122;2023-07-13T07:17:00;20.00;99.90
30186;DHT22;31152;49.190;8.122;2023-07-13T07:19:29;20.00;99.60
30186;DHT22;31152;49.190;8.122;2023-07-13T07:21:58;20.00;99.70
30186;DHT22;31152;49.190;8.122;2023-07-13T07:24:25;20.10;99.40
30186;DHT22;31152;49.190;8.122;2023-07-13T07:26:54;20.20;99.70
30186;DHT22;31152;49.190;8.122;2023-07-13T07:29:26;20.30;98.80
30186;DHT22;31152;49.190;8.122;2023-07-13T07:31:59;20.50;98.00
30186;DHT22;31152;49.190;8.122;2023-07-13T07:34:46;20.60;97.90
30186;DHT22;31152;49.190;8.122;2023-07-13T07:37:13;20.70;96.60
30186;DHT22;31152;49.190;8.122;2023-07-13T07:39:43;20.80;96.80
30186;DHT22;31152;49.190;8.122;2023-07-13T07:42:31;20.90;96.50
30186;DHT22;31152;49.190;8.122;2023-07-13T07:44:58;21.00;96.50
30186;DHT22;31152;49.190;8.122;2023-07-13T07:47:25;21.10;96.00
30186;DHT22;31152;49.190;8.122;2023-07-13T07:49:52;21.30;95.90
30186;DHT22;31152;49.190;8.122;2023-07-13T07:52:21;21.50;95.70
30186;DHT22;31152;49.190;8.122;2023-07-13T07:54:48;21.50;94.80
30186;DHT22;31152;49.190;8.122;2023-07-13T07:57:17;21.70;94.70
30186;DHT22;31152;49.190;8.122;2023-07-13T08:00:05;21.90;94.80
30186;DHT22;31152;49.190;8.122;2023-07-13T08:02:37;22.10;94.00
30186;DHT22;31152;49.190;8.122;2023-07-13T08:05:10;22.20;93.50
30186;DHT22;31152;49.190;8.122;2023-07-13T08:07:40;22.30;93.40
30186;DHT22;31152;49.190;8.122;2023-07-13T08:10:08;22.30;92.90
30186;DHT22;31152;49.190;8.122;2023-07-13T08:12:36;22.40;92.30
30186;DHT22;31152;49.190;8.122;2023-07-13T08:15:11;22.30;92.30
30186;DHT22;31152;49.190;8.122;2023-07-13T08:17:38;22.30;91.50
30186;DHT22;31152;49.190;8.122;2023-07-13T08:20:08;22.30;91.90
30186;DHT22;31152;49.190;8.122;2023-07-13T08:22:36;22.20;92.30
30186;DHT22;31152;49.190;8.122;2023-07-13T08:25:03;22.20;92.40
30186;DHT22;31152;49.190;8.122;2023-07-13T08:27:32;22.20;91.80
30186;DHT22;31152;49.190;8.122;2023-07-13T08:29:59;22.20;91.90
30186;DHT22;31152;49.190;8.122;2023-07-13T08:32:26;22.30;91.90
30186;DHT22;31152;49.190;8.122;2023-07-13T08:34:53;22.40;91.90
30186;DHT22;31152;49.190;8.122;2023-07-13T08:37:24;22.40;90.40
30186;DHT22;31152;49.190;8.122;2023-07-13T08:39:53;22.50;88.20
30186;DHT22;31152;49.190;8.122;2023-07-13T08:42:42;22.50;88.20
30186;DHT22;31152;49.190;8.122;2023-07-13T08:45:23;22.50;87.20
30186;DHT22;31152;49.190;8.122;2023-07-13T08:47:54;22.50;87.10
30186;DHT22;31152;49.190;8.122;2023-07-13T08:50:27;22.60;88.40
30186;DHT22;31152;49.190;8.122;2023-07-13T08:52:55;22.70;87.80
30186;DHT22;31152;49.190;8.122;2023-07-13T08:55:37;22.70;86.80
30186;DHT22;31152;49.190;8.122;2023-07-13T08:58:14;22.90;86.10
30186;DHT22;31152;49.190;8.122;2023-07-13T09:03:42;23.10;85.00
30186;DHT22;31152;49.190;8.122;2023-07-13T09:06:14;23.20;85.20
30186;DHT22;31152;49.190;8.122;2023-07-13T09:11:56;23.50;82.50
30186;DHT22;31152;49.190;8.122;2023-07-13T09:14:55;23.50;83.00
30186;DHT22;31152;49.190;8.122;2023-07-13T09:17:34;23.70;81.40
30186;DHT22;31152;49.190;8.122;2023-07-13T09:20:32;23.70;82.90
30186;DHT22;31152;49.190;8.122;2023-07-13T09:23:05;23.50;81.60
30186;DHT22;31152;49.190;8.122;2023-07-13T09:25:37;23.40;82.70
30186;DHT22;31152;49.190;8.122;2023-07-13T09:28:24;23.40;82.40
30186;DHT22;31152;49.190;8.122;2023-07-13T09:33:32;23.60;82.00
30186;DHT22;31152;49.190;8.122;2023-07-13T09:36:00;23.80;82.20
30186;DHT22;31152;49.190;8.122;2023-07-13T09:38:28;24.00;81.10
30186;DHT22;31152;49.190;8.122;2023-07-13T09:41:23;24.00;79.60
30186;DHT22;31152;49.190;8.122;2023-07-13T09:44:12;24.00;78.90
30186;DHT22;31152;49.190;8.122;2023-07-13T09:46:45;23.90;78.80
30186;DHT22;31152;49.190;8.122;2023-07-13T09:49:13;23.70;79.00
30186;DHT22;31152;49.190;8.122;2023-07-13T09:51:42;23.70;78.90
30186;DHT22;31152;49.190;8.122;2023-07-13T09:54:21;23.70;78.60
30186;DHT22;31152;49.190;8.122;2023-07-13T09:56:57;23.70;78.90
30186;DHT22;31152;49.190;8.122;2023-07-13T09:59:47;23.70;78.80
30186;DHT22;31152;49.190;8.122;2023-07-13T10:05:11;23.90;76.50
30186;DHT22;31152;49.190;8.122;2023-07-13T10:07:45;24.00;75.70
30186;DHT22;31152;49.190;8.122;2023-07-13T10:10:18;24.20;75.40
30186;DHT22;31152;49.190;8.122;2023-07-13T10:12:47;24.30;72.40
30186;DHT22;31152;49.190;8.122;2023-07-13T10:15:18;24.30;73.60
30186;DHT22;31152;49.190;8.122;2023-07-13T10:17:52;24.20;71.30
30186;DHT22;31152;49.190;8.122;2023-07-13T10:20:20;24.00;70.30
30186;DHT22;31152;49.190;8.122;2023-07-13T10:23:01;24.00;71.70
30186;DHT22;31152;49.190;8.122;2023-07-13T10:25:36;24.10;72.80
30186;DHT22;31152;49.190;8.122;2023-07-13T10:30:56;24.30;72.30
30186;DHT22;31152;49.190;8.122;2023-07-13T10:33:25;24.40;71.10
30186;DHT22;31152;49.190;8.122;2023-07-13T10:36:44;24.40;72.40
30186;DHT22;31152;49.190;8.122;2023-07-13T10:38:46;24.50;72.10
30186;DHT22;31152;49.190;8.122;2023-07-13T10:41:21;24.60;70.70
30186;DHT22;31152;49.190;8.122;2023-07-13T10:43:53;24.70;70.40
30186;DHT22;31152;49.190;8.122;2023-07-13T10:46:24;24.90;69.60
30186;DHT22;31152;49.190;8.122;2023-07-13T10:49:00;25.10;66.60
30186;DHT22;31152;49.190;8.122;2023-07-13T10:51:31;25.10;67.20
30186;DHT22;31152;49.190;8.122;2023-07-13T10:54:16;24.90;65.40
30186;DHT22;31152;49.190;8.122;2023-07-13T10:57:18;24.80;65.90
30186;DHT22;31152;49.190;8.122;2023-07-13T11:02:41;25.00;66.30
30186;DHT22;31152;49.190;8.122;2023-07-13T11:07:55;24.80;65.80
30186;DHT22;31152;49.190;8.122;2023-07-13T11:21:30;25.00;64.40
30186;DHT22;31152;49.190;8.122;2023-07-13T11:24:04;24.90;64.00
30186;DHT22;31152;49.190;8.122;2023-07-13T11:31:39;24.80;64.60
30186;DHT22;31152;49.190;8.122;2023-07-13T11:34:13;25.00;64.50
30186;DHT22;31152;49.190;8.122;2023-07-13T11:36:44;25.10;64.40
30186;DHT22;31152;49.190;8.122;2023-07-13T11:39:34;25.00;64.10
30186;DHT22;31152;49.190;8.122;2023-07-13T11:42:05;25.00;64.10
30186;DHT22;31152;49.190;8.122;2023-07-13T11:44:41;24.90;63.70
30186;DHT22;31152;49.190;8.122;2023-07-13T11:47:25;24.80;63.70
30186;DHT22;31152;49.190;8.122;2023-07-13T11:49:54;24.60;62.80
30186;DHT22;31152;49.190;8.122;2023-07-13T11:52:39;24.40;63.80
30186;DHT22;31152;49.190;8.122;2023-07-13T11:55:16;24.50;65.00
30186;DHT22;31152;49.190;8.122;2023-07-13T11:57:57;24.80;64.30
30186;DHT22;31152;49.190;8.122;2023-07-13T12:00:28;25.00;62.70
30186;DHT22;31152;49.190;8.122;2023-07-13T12:03:00;25.00;61.90
30186;DHT22;31152;49.190;8.122;2023-07-13T12:05:27;25.20;61.90
30186;DHT22;31152;49.190;8.122;2023-07-13T12:07:54;25.20;62.50
30186;DHT22;31152;49.190;8.122;2023-07-13T12:10:31;25.20;61.50
30186;DHT22;31152;49.190;8.122;2023-07-13T12:13:02;25.40;61.70
30186;DHT22;31152;49.190;8.122;2023-07-13T12:15:41;25.40;61.30
30186;DHT22;31152;49.190;8.122;2023-07-13T12:18:19;25.40;62.20
30186;DHT22;31152;49.190;8.122;2023-07-13T12:20:50;25.40;61.50
30186;DHT22;31152;49.190;8.122;2023-07-13T12:23:31;25.40;60.40
30186;DHT22;31152;49.190;8.122;2023-07-13T12:26:02;25.40;60.70
30186;DHT22;31152;49.190;8.122;2023-07-13T12:28:45;25.60;62.20
30186;DHT22;31152;49.190;8.122;2023-07-13T12:31:31;25.70;60.40
30186;DHT22;31152;49.190;8.122;2023-07-13T12:34:08;25.50;59.30
30186;DHT22;31152;49.190;8.122;2023-07-13T12:36:38;25.20;59.90
30186;DHT22;31152;49.190;8.122;2023-07-13T12:39:14;25.00;60.40
30186;DHT22;31152;49.190;8.122;2023-07-13T12:41:41;25.00;60.40
30186;DHT22;31152;49.190;8.122;2023-07-13T12:44:28;24.90;60.20
30186;DHT22;31152;49.190;8.122;2023-07-13T12:47:04;24.90;61.40
30186;DHT22;31152;49.190;8.122;2023-07-13T12:49:33;25.00;61.90
30186;DHT22;31152;49.190;8.122;2023-07-13T12:52:10;25.00;62.10
30186;DHT22;31152;49.190;8.122;2023-07-13T12:54:41;25.10;62.20
30186;DHT22;31152;49.190;8.122;2023-07-13T12:57:21;25.20;62.60
30186;DHT22;31152;49.190;8.122;2023-07-13T12:59:54;25.20;62.40
30186;DHT22;31152;49.190;8.122;2023-07-13T13:02:32;25.00;62.40
30186;DHT22;31152;49.190;8.122;2023-07-13T13:05:03;25.00;64.10
30186;DHT22;31152;49.190;8.122;2023-07-13T13:07:31;24.90;63.80
30186;DHT22;31152;49.190;8.122;2023-07-13T13:09:58;24.90;63.70
30186;DHT22;31152;49.190;8.122;2023-07-13T13:12:25;25.00;64.20
30186;DHT22;31152;49.190;8.122;2023-07-13T13:14:53;25.10;63.50
30186;DHT22;31152;49.190;8.122;2023-07-13T13:17:24;25.00;63.80
30186;DHT22;31152;49.190;8.122;2023-07-13T13:19:56;25.00;64.30
30186;DHT22;31152;49.190;8.122;2023-07-13T13:22:23;25.00;63.70
30186;DHT22;31152;49.190;8.122;2023-07-13T13:24:50;25.00;64.10
30186;DHT22;31152;49.190;8.122;2023-07-13T13:27:21;25.00;64.70
30186;DHT22;31152;49.190;8.122;2023-07-13T13:29:52;25.00;63.70
30186;DHT22;31152;49.190;8.122;2023-07-13T13:32:19;25.10;63.70
30186;DHT22;31152;49.190;8.122;2023-07-13T13:34:49;25.40;63.10
30186;DHT22;31152;49.190;8.122;2023-07-13T13:37:22;25.70;62.10
30186;DHT22;31152;49.190;8.122;2023-07-13T13:39:49;25.90;61.50
30186;DHT22;31152;49.190;8.122;2023-07-13T13:42:33;25.90;62.30
30186;DHT22;31152;49.190;8.122;2023-07-13T13:45:00;25.80;62.10
30186;DHT22;31152;49.190;8.122;2023-07-13T13:47:35;25.70;61.60
30186;DHT22;31152;49.190;8.122;2023-07-13T13:50:19;25.70;61.40
30186;DHT22;31152;49.190;8.122;2023-07-13T13:52:47;25.50;62.30
30186;DHT22;31152;49.190;8.122;2023-07-13T13:55:19;25.60;63.20
30186;DHT22;31152;49.190;8.122;2023-07-13T13:57:50;25.60;61.00
30186;DHT22;31152;49.190;8.122;2023-07-13T14:00:17;25.70;61.30
30186;DHT22;31152;49.190;8.122;2023-07-13T14:02:47;25.70;60.90
30186;DHT22;31152;49.190;8.122;2023-07-13T14:05:16;25.80;60.20
30186;DHT22;31152;49.190;8.122;2023-07-13T14:07:46;25.90;58.80
30186;DHT22;31152;49.190;8.122;2023-07-13T14:10:14;25.90;59.50
30186;DHT22;31152;49.190;8.122;2023-07-13T14:12:43;25.80;59.30
30186;DHT22;31152;49.190;8.122;2023-07-13T14:15:25;25.80;60.00
30186;DHT22;31152;49.190;8.122;2023-07-13T14:17:53;25.90;59.70
30186;DHT22;31152;49.190;8.122;2023-07-13T14:20:24;26.00;59.30
30186;DHT22;31152;49.190;8.122;2023-07-13T14:22:52;25.90;59.30
30186;DHT22;31152;49.190;8.122;2023-07-13T14:25:22;26.00;59.50
30186;DHT22;31152;49.190;8.122;2023-07-13T14:27:53;26.10;59.40
30186;DHT22;31152;49.190;8.122;2023-07-13T14:30:23;26.10;59.20
30186;DHT22;31152;49.190;8.122;2023-07-13T14:32:50;25.90;59.30
30186;DHT22;31152;49.190;8.122;2023-07-13T14:35:20;25.70;59.40
30186;DHT22;31152;49.190;8.122;2023-07-13T14:37:51;25.50;59.90
30186;DHT22;31152;49.190;8.122;2023-07-13T14:40:28;25.40;61.20
30186;DHT22;31152;49.190;8.122;2023-07-13T14:42:55;25.40;60.70
30186;DHT22;31152;49.190;8.122;2023-07-13T14:45:22;25.40;60.80
30186;DHT22;31152;49.190;8.122;2023-07-13T14:47:49;25.50;61.10
30186;DHT22;31152;49.190;8.122;2023-07-13T14:50:18;25.70;60.60
30186;DHT22;31152;49.190;8.122;2023-07-13T14:52:48;25.70;60.20
30186;DHT22;31152;49.190;8.122;2023-07-13T14:55:17;25.90;59.90
30186;DHT22;31152;49.190;8.122;2023-07-13T14:57:45;25.90;59.30
30186;DHT22;31152;49.190;8.122;2023-07-13T15:00:13;25.90;59.50
30186;DHT22;31152;49.190;8.122;2023-07-13T15:02:44;25.90;59.80
30186;DHT22;31152;49.190;8.122;2023-07-13T15:05:16;25.90;59.70
30186;DHT22;31152;49.190;8.122;2023-07-13T15:07:43;25.90;59.40
30186;DHT22;31152;49.190;8.122;2023-07-13T15:10:18;25.80;59.00
30186;DHT22;31152;49.190;8.122;2023-07-13T15:12:45;25.70;59.40
30186;DHT22;31152;49.190;8.122;2023-07-13T15:15:17;25.60;59.90
30186;DHT22;31152;49.190;8.122;2023-07-13T15:17:45;25.50;60.90
30186;DHT22;31152;49.190;8.122;2023-07-13T15:22:45;25.80;60.00
30186;DHT22;31152;49.190;8.122;2023-07-13T15:25:19;25.80;60.20
30186;DHT22;31152;49.190;8.122;2023-07-13T15:27:47;25.80;60.70
30186;DHT22;31152;49.190;8.122;2023-07-13T15:30:14;25.70;60.60
30186;DHT22;31152;49.190;8.122;2023-07-13T15:32:45;25.70;61.00
30186;DHT22;31152;49.190;8.122;2023-07-13T15:35:17;25.80;60.90
30186;DHT22;31152;49.190;8.122;2023-07-13T15:37:48;25.80;61.00
30186;DHT22;31152;49.190;8.122;2023-07-13T15:40:15;25.60;60.70
30186;DHT22;31152;49.190;8.122;2023-07-13T15:42:43;25.50;60.70
30186;DHT22;31152;49.190;8.122;2023-07-13T15:45:21;25.50;62.00
30186;DHT22;31152;49.190;8.122;2023-07-13T15:47:50;25.50;61.70
30186;DHT22;31152;49.190;8.122;2023-07-13T15:50:23;25.70;61.20
30186;DHT22;31152;49.190;8.122;2023-07-13T15:52:55;25.80;61.20
30186;DHT22;31152;49.190;8.122;2023-07-13T15:55:27;25.90;60.70
30186;DHT22;31152;49.190;8.122;2023-07-13T15:57:54;25.80;58.40
30186;DHT22;31152;49.190;8.122;2023-07-13T16:00:24;25.70;59.50
30186;DHT22;31152;49.190;8.122;2023-07-13T16:02:51;25.60;60.20
30186;DHT22;31152;49.190;8.122;2023-07-13T16:05:20;25.70;60.40
30186;DHT22;31152;49.190;8.122;2023-07-13T16:07:51;25.80;60.20
30186;DHT22;31152;49.190;8.122;2023-07-13T16:10:24;25.90;60.20
30186;DHT22;31152;49.190;8.122;2023-07-13T16:12:52;26.00;59.80
30186;DHT22;31152;49.190;8.122;2023-07-13T16:15:20;26.00;60.00
30186;DHT22;31152;49.190;8.122;2023-07-13T16:17:48;25.80;59.30
30186;DHT22;31152;49.190;8.122;2023-07-13T16:20:16;25.80;59.60
30186;DHT22;31152;49.190;8.122;2023-07-13T16:22:48;25.80;60.80
30186;DHT22;31152;49.190;8.122;2023-07-13T16:25:22;26.00;59.80
30186;DHT22;31152;49.190;8.122;2023-07-13T16:27:52;26.00;59.20
30186;DHT22;31152;49.190;8.122;2023-07-13T16:30:24;25.80;59.20
30186;DHT22;31152;49.190;8.122;2023-07-13T16:32:53;25.60;59.50